Terminal Aerodrome Forecast
Issued by NWS Melbourne, FL

Home | Current Version | Previous Version | Text Only | Print | Product List | Glossary On
Versions: 1 2 3 4 5 6 7 8 9 10 11 12 13
000
FTUS42 KMLB 292320
TAFDAB
TAF
KDAB 292320Z 3000/3024 06010KT P6SM VCTS SCT030CB SCT120
     FM300100 07004KT P6SM VCSH SCT035
     FM301400 08009KT P6SM SCT035
      TEMPO 3015/3017 BKN035=

USA.gov is the U.S. government's official web portal to all federal, state and local government web resources and services.